sensor_id;sensor_type;location;lat;lon;timestamp;P1;durP1;ratioP1;P2;durP2;ratioP2
6479;SDS011;71753;48.772;9.148;2024-02-16T00:01:07;4.50;;;3.00;;
6479;SDS011;71753;48.772;9.148;2024-02-16T00:03:34;6.87;;;3.10;;
6479;SDS011;71753;48.772;9.148;2024-02-16T00:06:02;5.17;;;3.07;;
6479;SDS011;71753;48.772;9.148;2024-02-16T00:08:29;4.33;;;2.93;;
6479;SDS011;71753;48.772;9.148;2024-02-16T00:10:56;4.77;;;2.93;;
6479;SDS011;71753;48.772;9.148;2024-02-16T00:13:23;4.20;;;2.83;;
6479;SDS011;71753;48.772;9.148;2024-02-16T00:15:50;4.83;;;3.10;;
6479;SDS011;71753;48.772;9.148;2024-02-16T00:18:16;4.97;;;3.03;;
6479;SDS011;71753;48.772;9.148;2024-02-16T00:20:43;6.10;;;2.93;;
6479;SDS011;71753;48.772;9.148;2024-02-16T00:23:12;5.43;;;2.90;;
6479;SDS011;71753;48.772;9.148;2024-02-16T00:25:39;3.80;;;2.70;;
6479;SDS011;71753;48.772;9.148;2024-02-16T00:28:06;4.13;;;2.63;;
6479;SDS011;71753;48.772;9.148;2024-02-16T00:30:32;4.13;;;2.70;;
6479;SDS011;71753;48.772;9.148;2024-02-16T00:32:59;5.67;;;2.90;;
6479;SDS011;71753;48.772;9.148;2024-02-16T00:35:26;4.33;;;3.10;;
6479;SDS011;71753;48.772;9.148;2024-02-16T00:37:53;4.87;;;3.03;;
6479;SDS011;71753;48.772;9.148;2024-02-16T00:40:21;4.17;;;2.73;;
6479;SDS011;71753;48.772;9.148;2024-02-16T00:42:48;3.70;;;2.87;;
6479;SDS011;71753;48.772;9.148;2024-02-16T00:45:14;3.90;;;2.70;;
6479;SDS011;71753;48.772;9.148;2024-02-16T00:47:41;3.73;;;2.57;;
6479;SDS011;71753;48.772;9.148;2024-02-16T00:50:10;4.70;;;2.90;;
6479;SDS011;71753;48.772;9.148;2024-02-16T00:52:36;5.40;;;3.10;;
6479;SDS011;71753;48.772;9.148;2024-02-16T00:55:04;3.63;;;2.87;;
6479;SDS011;71753;48.772;9.148;2024-02-16T00:57:33;4.80;;;2.90;;
6479;SDS011;71753;48.772;9.148;2024-02-16T00:59:59;5.77;;;2.93;;
6479;SDS011;71753;48.772;9.148;2024-02-16T01:02:28;4.17;;;3.00;;
6479;SDS011;71753;48.772;9.148;2024-02-16T01:04:56;5.53;;;2.80;;
6479;SDS011;71753;48.772;9.148;2024-02-16T01:07:27;4.53;;;3.00;;
6479;SDS011;71753;48.772;9.148;2024-02-16T01:09:53;4.67;;;3.30;;
6479;SDS011;71753;48.772;9.148;2024-02-16T01:12:21;5.13;;;3.30;;
6479;SDS011;71753;48.772;9.148;2024-02-16T01:14:49;4.63;;;3.00;;
6479;SDS011;71753;48.772;9.148;2024-02-16T01:17:16;5.50;;;3.20;;
6479;SDS011;71753;48.772;9.148;2024-02-16T01:19:42;4.13;;;2.73;;
6479;SDS011;71753;48.772;9.148;2024-02-16T01:22:09;4.87;;;3.10;;
6479;SDS011;71753;48.772;9.148;2024-02-16T01:24:36;5.20;;;3.10;;
6479;SDS011;71753;48.772;9.148;2024-02-16T01:27:02;6.60;;;3.00;;
6479;SDS011;71753;48.772;9.148;2024-02-16T01:29:29;3.50;;;2.50;;
6479;SDS011;71753;48.772;9.148;2024-02-16T01:31:59;4.20;;;2.73;;
6479;SDS011;71753;48.772;9.148;2024-02-16T01:34:25;4.97;;;3.10;;
6479;SDS011;71753;48.772;9.148;2024-02-16T01:36:52;5.93;;;3.20;;
6479;SDS011;71753;48.772;9.148;2024-02-16T01:39:19;8.10;;;3.33;;
6479;SDS011;71753;48.772;9.148;2024-02-16T01:41:45;6.50;;;3.33;;
6479;SDS011;71753;48.772;9.148;2024-02-16T01:44:12;5.43;;;3.50;;
6479;SDS011;71753;48.772;9.148;2024-02-16T01:46:41;4.00;;;3.10;;
6479;SDS011;71753;48.772;9.148;2024-02-16T01:49:10;5.67;;;3.27;;
6479;SDS011;71753;48.772;9.148;2024-02-16T01:51:39;4.83;;;3.07;;
6479;SDS011;71753;48.772;9.148;2024-02-16T01:54:06;3.10;;;2.67;;
6479;SDS011;71753;48.772;9.148;2024-02-16T01:56:33;5.50;;;3.30;;
6479;SDS011;71753;48.772;9.148;2024-02-16T01:59:00;4.97;;;3.27;;
6479;SDS011;71753;48.772;9.148;2024-02-16T02:01:26;5.83;;;3.40;;
6479;SDS011;71753;48.772;9.148;2024-02-16T02:03:53;6.33;;;3.10;;
6479;SDS011;71753;48.772;9.148;2024-02-16T02:06:21;5.30;;;3.30;;
6479;SDS011;71753;48.772;9.148;2024-02-16T02:08:48;6.10;;;3.67;;
6479;SDS011;71753;48.772;9.148;2024-02-16T02:11:15;4.77;;;3.00;;
6479;SDS011;71753;48.772;9.148;2024-02-16T02:13:41;4.67;;;3.30;;
6479;SDS011;71753;48.772;9.148;2024-02-16T02:16:08;4.43;;;2.97;;
6479;SDS011;71753;48.772;9.148;2024-02-16T02:18:36;4.87;;;3.27;;
6479;SDS011;71753;48.772;9.148;2024-02-16T02:21:03;5.27;;;2.77;;
6479;SDS011;71753;48.772;9.148;2024-02-16T02:23:32;4.97;;;3.03;;
6479;SDS011;71753;48.772;9.148;2024-02-16T02:25:59;4.77;;;3.07;;
6479;SDS011;71753;48.772;9.148;2024-02-16T02:28:26;4.33;;;2.90;;
6479;SDS011;71753;48.772;9.148;2024-02-16T02:30:54;5.00;;;3.00;;
6479;SDS011;71753;48.772;9.148;2024-02-16T02:33:20;4.27;;;2.87;;
6479;SDS011;71753;48.772;9.148;2024-02-16T02:35:47;3.87;;;2.80;;
6479;SDS011;71753;48.772;9.148;2024-02-16T02:38:14;3.97;;;2.87;;
6479;SDS011;71753;48.772;9.148;2024-02-16T02:40:42;4.40;;;3.07;;
6479;SDS011;71753;48.772;9.148;2024-02-16T02:43:09;5.37;;;3.10;;
6479;SDS011;71753;48.772;9.148;2024-02-16T02:45:36;4.00;;;3.00;;
6479;SDS011;71753;48.772;9.148;2024-02-16T02:48:02;4.53;;;2.90;;
6479;SDS011;71753;48.772;9.148;2024-02-16T02:50:29;4.90;;;3.03;;
6479;SDS011;71753;48.772;9.148;2024-02-16T02:52:56;3.70;;;2.70;;
6479;SDS011;71753;48.772;9.148;2024-02-16T02:55:23;3.73;;;2.97;;
6479;SDS011;71753;48.772;9.148;2024-02-16T02:57:51;5.43;;;3.00;;
6479;SDS011;71753;48.772;9.148;2024-02-16T03:00:18;4.03;;;3.00;;
6479;SDS011;71753;48.772;9.148;2024-02-16T03:02:45;5.07;;;3.47;;
6479;SDS011;71753;48.772;9.148;2024-02-16T03:05:12;5.87;;;3.20;;
6479;SDS011;71753;48.772;9.148;2024-02-16T03:07:39;4.60;;;3.30;;
6479;SDS011;71753;48.772;9.148;2024-02-16T03:10:06;5.00;;;3.30;;
6479;SDS011;71753;48.772;9.148;2024-02-16T03:12:35;5.83;;;3.43;;
6479;SDS011;71753;48.772;9.148;2024-02-16T03:15:04;4.30;;;3.10;;
6479;SDS011;71753;48.772;9.148;2024-02-16T03:17:31;4.67;;;3.20;;
6479;SDS011;71753;48.772;9.148;2024-02-16T03:19:58;5.50;;;3.50;;
6479;SDS011;71753;48.772;9.148;2024-02-16T03:22:25;6.20;;;3.33;;
6479;SDS011;71753;48.772;9.148;2024-02-16T03:24:52;5.67;;;3.40;;
6479;SDS011;71753;48.772;9.148;2024-02-16T03:27:18;6.67;;;3.60;;
6479;SDS011;71753;48.772;9.148;2024-02-16T03:29:45;6.33;;;3.20;;
6479;SDS011;71753;48.772;9.148;2024-02-16T03:32:13;7.97;;;3.30;;
6479;SDS011;71753;48.772;9.148;2024-02-16T03:34:40;5.47;;;3.37;;
6479;SDS011;71753;48.772;9.148;2024-02-16T03:37:07;3.67;;;2.57;;
6479;SDS011;71753;48.772;9.148;2024-02-16T03:39:34;5.43;;;2.90;;
6479;SDS011;71753;48.772;9.148;2024-02-16T03:42:01;3.67;;;2.37;;
6479;SDS011;71753;48.772;9.148;2024-02-16T03:44:28;3.47;;;2.40;;
6479;SDS011;71753;48.772;9.148;2024-02-16T03:46:54;3.50;;;2.23;;
6479;SDS011;71753;48.772;9.148;2024-02-16T03:49:23;3.43;;;2.50;;
6479;SDS011;71753;48.772;9.148;2024-02-16T03:51:53;4.43;;;3.10;;
6479;SDS011;71753;48.772;9.148;2024-02-16T03:54:19;4.60;;;3.00;;
6479;SDS011;71753;48.772;9.148;2024-02-16T03:56:46;5.70;;;2.70;;
6479;SDS011;71753;48.772;9.148;2024-02-16T03:59:13;3.37;;;2.50;;
6479;SDS011;71753;48.772;9.148;2024-02-16T04:01:40;3.80;;;2.60;;
6479;SDS011;71753;48.772;9.148;2024-02-16T04:04:07;4.77;;;3.40;;
6479;SDS011;71753;48.772;9.148;2024-02-16T04:06:35;5.97;;;3.37;;
6479;SDS011;71753;48.772;9.148;2024-02-16T04:09:02;6.60;;;3.73;;
6479;SDS011;71753;48.772;9.148;2024-02-16T04:11:31;5.33;;;3.53;;
6479;SDS011;71753;48.772;9.148;2024-02-16T04:13:57;5.03;;;3.30;;
6479;SDS011;71753;48.772;9.148;2024-02-16T04:16:24;6.13;;;3.60;;
6479;SDS011;71753;48.772;9.148;2024-02-16T04:18:51;7.80;;;3.50;;
6479;SDS011;71753;48.772;9.148;2024-02-16T04:21:18;5.67;;;3.37;;
6479;SDS011;71753;48.772;9.148;2024-02-16T04:23:47;7.90;;;3.80;;
6479;SDS011;71753;48.772;9.148;2024-02-16T04:26:14;6.37;;;3.60;;
6479;SDS011;71753;48.772;9.148;2024-02-16T04:28:40;8.00;;;3.77;;
6479;SDS011;71753;48.772;9.148;2024-02-16T04:31:07;6.03;;;3.67;;
6479;SDS011;71753;48.772;9.148;2024-02-16T04:33:34;6.07;;;3.73;;
6479;SDS011;71753;48.772;9.148;2024-02-16T04:36:00;5.03;;;3.50;;
6479;SDS011;71753;48.772;9.148;2024-02-16T04:38:27;6.97;;;3.87;;
6479;SDS011;71753;48.772;9.148;2024-02-16T04:40:55;5.53;;;3.37;;
6479;SDS011;71753;48.772;9.148;2024-02-16T04:43:22;6.20;;;3.30;;
6479;SDS011;71753;48.772;9.148;2024-02-16T04:45:48;4.03;;;2.80;;
6479;SDS011;71753;48.772;9.148;2024-02-16T04:48:15;5.33;;;2.53;;
6479;SDS011;71753;48.772;9.148;2024-02-16T04:50:42;4.37;;;2.37;;
6479;SDS011;71753;48.772;9.148;2024-02-16T04:53:09;3.17;;;2.20;;
6479;SDS011;71753;48.772;9.148;2024-02-16T04:55:35;3.80;;;2.43;;
6479;SDS011;71753;48.772;9.148;2024-02-16T04:58:04;3.93;;;2.80;;
6479;SDS011;71753;48.772;9.148;2024-02-16T05:00:34;2.93;;;2.30;;
6479;SDS011;71753;48.772;9.148;2024-02-16T05:03:01;3.60;;;2.47;;
6479;SDS011;71753;48.772;9.148;2024-02-16T05:05:28;4.30;;;3.10;;
6479;SDS011;71753;48.772;9.148;2024-02-16T05:07:55;4.60;;;3.23;;
6479;SDS011;71753;48.772;9.148;2024-02-16T05:10:22;6.57;;;2.87;;
6479;SDS011;71753;48.772;9.148;2024-02-16T05:12:49;3.53;;;2.50;;
6479;SDS011;71753;48.772;9.148;2024-02-16T05:15:17;5.67;;;3.23;;
6479;SDS011;71753;48.772;9.148;2024-02-16T05:17:46;4.27;;;2.87;;
6479;SDS011;71753;48.772;9.148;2024-02-16T05:20:14;4.57;;;2.97;;
6479;SDS011;71753;48.772;9.148;2024-02-16T05:22:41;4.30;;;2.90;;
6479;SDS011;71753;48.772;9.148;2024-02-16T05:25:08;5.70;;;2.97;;
6479;SDS011;71753;48.772;9.148;2024-02-16T05:27:36;4.97;;;3.10;;
6479;SDS011;71753;48.772;9.148;2024-02-16T05:30:03;4.63;;;2.90;;
6479;SDS011;71753;48.772;9.148;2024-02-16T05:32:34;3.63;;;2.50;;
6479;SDS011;71753;48.772;9.148;2024-02-16T05:35:02;4.13;;;2.97;;
6479;SDS011;71753;48.772;9.148;2024-02-16T05:37:36;4.50;;;3.10;;
6479;SDS011;71753;48.772;9.148;2024-02-16T05:40:06;5.63;;;3.37;;
6479;SDS011;71753;48.772;9.148;2024-02-16T05:42:44;5.33;;;2.97;;
6479;SDS011;71753;48.772;9.148;2024-02-16T05:45:12;4.17;;;2.93;;
6479;SDS011;71753;48.772;9.148;2024-02-16T05:47:40;4.67;;;2.70;;
6479;SDS011;71753;48.772;9.148;2024-02-16T05:50:08;5.47;;;3.57;;
6479;SDS011;71753;48.772;9.148;2024-02-16T05:52:37;4.63;;;2.70;;
6479;SDS011;71753;48.772;9.148;2024-02-16T05:55:04;4.47;;;2.97;;
6479;SDS011;71753;48.772;9.148;2024-02-16T05:57:31;5.07;;;2.70;;
6479;SDS011;71753;48.772;9.148;2024-02-16T05:59:58;6.47;;;2.80;;
6479;SDS011;71753;48.772;9.148;2024-02-16T06:02:24;4.67;;;3.00;;
6479;SDS011;71753;48.772;9.148;2024-02-16T06:04:53;3.47;;;2.70;;
6479;SDS011;71753;48.772;9.148;2024-02-16T06:07:20;4.37;;;2.93;;
6479;SDS011;71753;48.772;9.148;2024-02-16T06:09:47;4.30;;;2.90;;
6479;SDS011;71753;48.772;9.148;2024-02-16T06:12:14;3.93;;;2.80;;
6479;SDS011;71753;48.772;9.148;2024-02-16T06:14:41;4.77;;;2.93;;
6479;SDS011;71753;48.772;9.148;2024-02-16T06:17:08;4.40;;;2.93;;
6479;SDS011;71753;48.772;9.148;2024-02-16T06:19:34;3.80;;;2.40;;
6479;SDS011;71753;48.772;9.148;2024-02-16T06:22:03;4.13;;;2.90;;
6479;SDS011;71753;48.772;9.148;2024-02-16T06:24:29;4.50;;;2.50;;
6479;SDS011;71753;48.772;9.148;2024-02-16T06:26:57;5.57;;;3.00;;
6479;SDS011;71753;48.772;9.148;2024-02-16T06:29:24;4.57;;;2.50;;
6479;SDS011;71753;48.772;9.148;2024-02-16T06:31:50;3.70;;;2.50;;
6479;SDS011;71753;48.772;9.148;2024-02-16T06:34:17;4.83;;;2.83;;
6479;SDS011;71753;48.772;9.148;2024-02-16T06:36:45;3.70;;;2.50;;
6479;SDS011;71753;48.772;9.148;2024-02-16T06:39:14;4.77;;;2.80;;
6479;SDS011;71753;48.772;9.148;2024-02-16T06:41:43;4.13;;;2.70;;
6479;SDS011;71753;48.772;9.148;2024-02-16T06:44:11;3.87;;;2.60;;
6479;SDS011;71753;48.772;9.148;2024-02-16T06:46:38;3.80;;;2.50;;
6479;SDS011;71753;48.772;9.148;2024-02-16T06:49:05;4.10;;;2.53;;
6479;SDS011;71753;48.772;9.148;2024-02-16T06:51:31;4.47;;;2.70;;
6479;SDS011;71753;48.772;9.148;2024-02-16T06:53:58;5.23;;;3.07;;
6479;SDS011;71753;48.772;9.148;2024-02-16T06:56:27;4.07;;;2.80;;
6479;SDS011;71753;48.772;9.148;2024-02-16T06:58:53;4.13;;;2.90;;
6479;SDS011;71753;48.772;9.148;2024-02-16T07:01:20;4.37;;;2.70;;
6479;SDS011;71753;48.772;9.148;2024-02-16T07:03:47;3.97;;;2.67;;
6479;SDS011;71753;48.772;9.148;2024-02-16T07:06:14;4.40;;;2.70;;
6479;SDS011;71753;48.772;9.148;2024-02-16T07:08:41;4.60;;;2.60;;
6479;SDS011;71753;48.772;9.148;2024-02-16T07:11:08;4.10;;;2.80;;
6479;SDS011;71753;48.772;9.148;2024-02-16T07:13:38;5.27;;;3.10;;
6479;SDS011;71753;48.772;9.148;2024-02-16T07:16:05;3.83;;;2.50;;
6479;SDS011;71753;48.772;9.148;2024-02-16T07:18:33;6.67;;;3.03;;
6479;SDS011;71753;48.772;9.148;2024-02-16T07:20:59;4.00;;;2.73;;
6479;SDS011;71753;48.772;9.148;2024-02-16T07:23:26;3.53;;;2.50;;
6479;SDS011;71753;48.772;9.148;2024-02-16T07:25:53;5.10;;;2.87;;
6479;SDS011;71753;48.772;9.148;2024-02-16T07:28:21;5.67;;;2.93;;
6479;SDS011;71753;48.772;9.148;2024-02-16T07:30:49;6.37;;;3.47;;
6479;SDS011;71753;48.772;9.148;2024-02-16T07:33:16;4.50;;;3.20;;
6479;SDS011;71753;48.772;9.148;2024-02-16T07:35:43;5.00;;;3.57;;
6479;SDS011;71753;48.772;9.148;2024-02-16T07:38:10;5.27;;;3.50;;
6479;SDS011;71753;48.772;9.148;2024-02-16T07:40:37;6.37;;;3.43;;
6479;SDS011;71753;48.772;9.148;2024-02-16T07:43:04;5.00;;;2.87;;
6479;SDS011;71753;48.772;9.148;2024-02-16T07:45:33;6.03;;;3.27;;
6479;SDS011;71753;48.772;9.148;2024-02-16T07:48:01;6.67;;;3.13;;
6479;SDS011;71753;48.772;9.148;2024-02-16T07:50:30;5.03;;;3.30;;
6479;SDS011;71753;48.772;9.148;2024-02-16T07:52:57;5.43;;;3.20;;
6479;SDS011;71753;48.772;9.148;2024-02-16T07:55:24;3.77;;;2.87;;
6479;SDS011;71753;48.772;9.148;2024-02-16T07:57:50;4.87;;;3.00;;
6479;SDS011;71753;48.772;9.148;2024-02-16T08:00:17;5.40;;;3.50;;
6479;SDS011;71753;48.772;9.148;2024-02-16T08:02:44;4.40;;;3.30;;
6479;SDS011;71753;48.772;9.148;2024-02-16T08:05:13;7.57;;;4.07;;
6479;SDS011;71753;48.772;9.148;2024-02-16T08:07:40;4.87;;;3.60;;
6479;SDS011;71753;48.772;9.148;2024-02-16T08:10:07;6.37;;;3.80;;
6479;SDS011;71753;48.772;9.148;2024-02-16T08:12:35;5.83;;;3.60;;
6479;SDS011;71753;48.772;9.148;2024-02-16T08:15:03;6.43;;;4.00;;
6479;SDS011;71753;48.772;9.148;2024-02-16T08:17:32;6.23;;;3.77;;
6479;SDS011;71753;48.772;9.148;2024-02-16T08:19:59;7.23;;;3.90;;
6479;SDS011;71753;48.772;9.148;2024-02-16T08:22:27;7.90;;;4.10;;
6479;SDS011;71753;48.772;9.148;2024-02-16T08:24:57;5.83;;;4.10;;
6479;SDS011;71753;48.772;9.148;2024-02-16T08:27:24;5.83;;;3.90;;
6479;SDS011;71753;48.772;9.148;2024-02-16T08:29:51;6.83;;;4.27;;
6479;SDS011;71753;48.772;9.148;2024-02-16T08:32:17;8.43;;;3.73;;
6479;SDS011;71753;48.772;9.148;2024-02-16T08:34:45;7.77;;;4.27;;
6479;SDS011;71753;48.772;9.148;2024-02-16T08:37:13;6.47;;;3.87;;
6479;SDS011;71753;48.772;9.148;2024-02-16T08:39:41;5.10;;;3.40;;
6479;SDS011;71753;48.772;9.148;2024-02-16T08:42:08;6.00;;;3.50;;
6479;SDS011;71753;48.772;9.148;2024-02-16T08:44:36;5.63;;;3.63;;
6479;SDS011;71753;48.772;9.148;2024-02-16T08:47:04;6.23;;;3.80;;
6479;SDS011;71753;48.772;9.148;2024-02-16T08:49:31;5.47;;;3.40;;
6479;SDS011;71753;48.772;9.148;2024-02-16T08:51:58;4.60;;;3.07;;
6479;SDS011;71753;48.772;9.148;2024-02-16T08:54:25;4.83;;;3.27;;
6479;SDS011;71753;48.772;9.148;2024-02-16T08:56:53;5.40;;;3.10;;
6479;SDS011;71753;48.772;9.148;2024-02-16T08:59:20;4.27;;;3.13;;
6479;SDS011;71753;48.772;9.148;2024-02-16T09:01:46;5.03;;;3.10;;
6479;SDS011;71753;48.772;9.148;2024-02-16T09:04:13;6.33;;;3.00;;
6479;SDS011;71753;48.772;9.148;2024-02-16T09:06:40;4.47;;;3.03;;
6479;SDS011;71753;48.772;9.148;2024-02-16T09:09:07;5.03;;;3.40;;
6479;SDS011;71753;48.772;9.148;2024-02-16T09:11:34;5.47;;;3.17;;
6479;SDS011;71753;48.772;9.148;2024-02-16T09:14:02;6.07;;;3.30;;
6479;SDS011;71753;48.772;9.148;2024-02-16T09:16:29;5.60;;;3.40;;
6479;SDS011;71753;48.772;9.148;2024-02-16T09:18:57;4.83;;;3.30;;
6479;SDS011;71753;48.772;9.148;2024-02-16T09:21:25;6.07;;;3.50;;
6479;SDS011;71753;48.772;9.148;2024-02-16T09:23:54;4.50;;;3.10;;
6479;SDS011;71753;48.772;9.148;2024-02-16T09:26:23;5.37;;;3.37;;
6479;SDS011;71753;48.772;9.148;2024-02-16T09:28:55;4.87;;;3.27;;
6479;SDS011;71753;48.772;9.148;2024-02-16T09:31:23;5.27;;;3.50;;
6479;SDS011;71753;48.772;9.148;2024-02-16T09:33:50;5.57;;;3.13;;
6479;SDS011;71753;48.772;9.148;2024-02-16T09:36:18;7.77;;;3.80;;
6479;SDS011;71753;48.772;9.148;2024-02-16T09:38:45;5.10;;;3.53;;
6479;SDS011;71753;48.772;9.148;2024-02-16T09:41:12;4.60;;;3.23;;
6479;SDS011;71753;48.772;9.148;2024-02-16T09:43:41;4.07;;;3.33;;
6479;SDS011;71753;48.772;9.148;2024-02-16T09:46:08;5.30;;;3.33;;
6479;SDS011;71753;48.772;9.148;2024-02-16T09:48:37;4.83;;;3.50;;
6479;SDS011;71753;48.772;9.148;2024-02-16T09:51:06;4.80;;;3.13;;
6479;SDS011;71753;48.772;9.148;2024-02-16T09:53:34;4.83;;;3.23;;
6479;SDS011;71753;48.772;9.148;2024-02-16T09:56:01;6.93;;;3.00;;
6479;SDS011;71753;48.772;9.148;2024-02-16T09:58:28;6.77;;;3.20;;
6479;SDS011;71753;48.772;9.148;2024-02-16T10:00:55;4.03;;;2.33;;
6479;SDS011;71753;48.772;9.148;2024-02-16T10:03:23;2.03;;;1.63;;
6479;SDS011;71753;48.772;9.148;2024-02-16T10:05:51;2.47;;;1.93;;
6479;SDS011;71753;48.772;9.148;2024-02-16T10:08:18;1.63;;;1.53;;
6479;SDS011;71753;48.772;9.148;2024-02-16T10:10:45;2.30;;;1.70;;
6479;SDS011;71753;48.772;9.148;2024-02-16T10:13:11;2.90;;;1.83;;
6479;SDS011;71753;48.772;9.148;2024-02-16T10:15:38;1.73;;;1.50;;
6479;SDS011;71753;48.772;9.148;2024-02-16T10:18:05;2.10;;;1.60;;
6479;SDS011;71753;48.772;9.148;2024-02-16T10:20:33;3.93;;;2.00;;
6479;SDS011;71753;48.772;9.148;2024-02-16T10:23:06;2.63;;;1.70;;
6479;SDS011;71753;48.772;9.148;2024-02-16T10:25:33;1.80;;;1.60;;
6479;SDS011;71753;48.772;9.148;2024-02-16T10:28:03;2.87;;;1.80;;
6479;SDS011;71753;48.772;9.148;2024-02-16T10:30:34;2.20;;;1.60;;
6479;SDS011;71753;48.772;9.148;2024-02-16T10:33:02;2.23;;;1.50;;
6479;SDS011;71753;48.772;9.148;2024-02-16T10:35:30;2.37;;;1.60;;
6479;SDS011;71753;48.772;9.148;2024-02-16T10:37:58;2.03;;;1.67;;
6479;SDS011;71753;48.772;9.148;2024-02-16T10:40:31;1.90;;;1.50;;
6479;SDS011;71753;48.772;9.148;2024-02-16T10:43:00;2.40;;;1.73;;
6479;SDS011;71753;48.772;9.148;2024-02-16T10:45:31;1.60;;;1.40;;
6479;SDS011;71753;48.772;9.148;2024-02-16T10:48:00;2.30;;;1.80;;
6479;SDS011;71753;48.772;9.148;2024-02-16T10:50:27;2.37;;;1.63;;
6479;SDS011;71753;48.772;9.148;2024-02-16T10:52:54;1.90;;;1.70;;
6479;SDS011;71753;48.772;9.148;2024-02-16T10:55:23;2.27;;;1.70;;
6479;SDS011;71753;48.772;9.148;2024-02-16T10:57:51;2.57;;;1.90;;
6479;SDS011;71753;48.772;9.148;2024-02-16T11:00:20;2.20;;;1.60;;
6479;SDS011;71753;48.772;9.148;2024-02-16T11:02:50;2.40;;;1.60;;
6479;SDS011;71753;48.772;9.148;2024-02-16T11:05:20;3.57;;;1.80;;
6479;SDS011;71753;48.772;9.148;2024-02-16T11:08:01;2.33;;;1.80;;
6479;SDS011;71753;48.772;9.148;2024-02-16T11:10:29;2.27;;;1.60;;
6479;SDS011;71753;48.772;9.148;2024-02-16T11:13:01;2.63;;;1.80;;
6479;SDS011;71753;48.772;9.148;2024-02-16T11:15:30;2.17;;;1.67;;
6479;SDS011;71753;48.772;9.148;2024-02-16T11:17:57;3.77;;;1.70;;
6479;SDS011;71753;48.772;9.148;2024-02-16T11:20:26;3.80;;;1.70;;
6479;SDS011;71753;48.772;9.148;2024-02-16T11:22:53;2.43;;;1.70;;
6479;SDS011;71753;48.772;9.148;2024-02-16T11:25:30;2.03;;;1.53;;
6479;SDS011;71753;48.772;9.148;2024-02-16T11:27:57;1.60;;;1.40;;
6479;SDS011;71753;48.772;9.148;2024-02-16T11:30:25;3.40;;;1.50;;
6479;SDS011;71753;48.772;9.148;2024-02-16T11:32:52;1.90;;;1.70;;
6479;SDS011;71753;48.772;9.148;2024-02-16T11:35:19;1.87;;;1.53;;
6479;SDS011;71753;48.772;9.148;2024-02-16T11:37:46;2.07;;;1.60;;
6479;SDS011;71753;48.772;9.148;2024-02-16T11:40:12;2.53;;;1.60;;
6479;SDS011;71753;48.772;9.148;2024-02-16T11:42:39;4.27;;;1.87;;
6479;SDS011;71753;48.772;9.148;2024-02-16T11:45:09;3.07;;;1.70;;
6479;SDS011;71753;48.772;9.148;2024-02-16T11:47:39;3.00;;;1.67;;
6479;SDS011;71753;48.772;9.148;2024-02-16T11:50:06;2.97;;;1.67;;
6479;SDS011;71753;48.772;9.148;2024-02-16T11:52:36;2.30;;;1.70;;
6479;SDS011;71753;48.772;9.148;2024-02-16T11:55:03;2.00;;;1.80;;
6479;SDS011;71753;48.772;9.148;2024-02-16T11:57:30;2.00;;;1.67;;
6479;SDS011;71753;48.772;9.148;2024-02-16T11:59:57;2.30;;;1.70;;
6479;SDS011;71753;48.772;9.148;2024-02-16T12:02:24;1.67;;;1.50;;
6479;SDS011;71753;48.772;9.148;2024-02-16T12:04:58;1.63;;;1.47;;
6479;SDS011;71753;48.772;9.148;2024-02-16T12:07:25;1.70;;;1.60;;
6479;SDS011;71753;48.772;9.148;2024-02-16T12:09:56;1.70;;;1.50;;
6479;SDS011;71753;48.772;9.148;2024-02-16T12:12:23;2.33;;;1.90;;
6479;SDS011;71753;48.772;9.148;2024-02-16T12:14:50;2.77;;;2.00;;
6479;SDS011;71753;48.772;9.148;2024-02-16T12:17:18;3.33;;;1.70;;
6479;SDS011;71753;48.772;9.148;2024-02-16T12:19:45;2.73;;;1.80;;
6479;SDS011;71753;48.772;9.148;2024-02-16T12:22:17;1.73;;;1.50;;
6479;SDS011;71753;48.772;9.148;2024-02-16T12:24:44;2.57;;;1.67;;
6479;SDS011;71753;48.772;9.148;2024-02-16T12:27:11;2.47;;;1.80;;
6479;SDS011;71753;48.772;9.148;2024-02-16T12:29:38;2.70;;;1.87;;
6479;SDS011;71753;48.772;9.148;2024-02-16T12:32:05;2.63;;;1.90;;
6479;SDS011;71753;48.772;9.148;2024-02-16T12:34:34;2.33;;;1.50;;
6479;SDS011;71753;48.772;9.148;2024-02-16T12:37:04;3.97;;;1.73;;
6479;SDS011;71753;48.772;9.148;2024-02-16T12:39:33;1.67;;;1.50;;
6479;SDS011;71753;48.772;9.148;2024-02-16T12:42:00;2.73;;;1.80;;
6479;SDS011;71753;48.772;9.148;2024-02-16T12:44:27;1.67;;;1.57;;
6479;SDS011;71753;48.772;9.148;2024-02-16T12:46:55;2.77;;;1.70;;
6479;SDS011;71753;48.772;9.148;2024-02-16T12:49:22;2.97;;;1.60;;
6479;SDS011;71753;48.772;9.148;2024-02-16T12:51:49;2.87;;;1.80;;
6479;SDS011;71753;48.772;9.148;2024-02-16T12:54:16;3.23;;;1.90;;
6479;SDS011;71753;48.772;9.148;2024-02-16T12:56:45;4.10;;;1.90;;
6479;SDS011;71753;48.772;9.148;2024-02-16T12:59:13;4.90;;;2.10;;
6479;SDS011;71753;48.772;9.148;2024-02-16T13:01:40;1.87;;;1.63;;
6479;SDS011;71753;48.772;9.148;2024-02-16T13:04:08;2.63;;;1.80;;
6479;SDS011;71753;48.772;9.148;2024-02-16T13:06:35;2.23;;;1.70;;
6479;SDS011;71753;48.772;9.148;2024-02-16T13:09:02;1.97;;;1.60;;
6479;SDS011;71753;48.772;9.148;2024-02-16T13:11:29;2.87;;;1.87;;
6479;SDS011;71753;48.772;9.148;2024-02-16T13:13:57;2.93;;;2.00;;
6479;SDS011;71753;48.772;9.148;2024-02-16T13:16:24;3.03;;;1.90;;
6479;SDS011;71753;48.772;9.148;2024-02-16T13:18:51;2.80;;;2.10;;
6479;SDS011;71753;48.772;9.148;2024-02-16T13:21:18;3.53;;;2.17;;
6479;SDS011;71753;48.772;9.148;2024-02-16T13:23:45;3.20;;;2.20;;
6479;SDS011;71753;48.772;9.148;2024-02-16T13:26:12;2.53;;;1.90;;
6479;SDS011;71753;48.772;9.148;2024-02-16T13:28:38;4.17;;;2.07;;
6479;SDS011;71753;48.772;9.148;2024-02-16T13:31:06;3.83;;;2.10;;
6479;SDS011;71753;48.772;9.148;2024-02-16T13:33:35;2.53;;;2.00;;
6479;SDS011;71753;48.772;9.148;2024-02-16T13:36:02;3.47;;;2.20;;
6479;SDS011;71753;48.772;9.148;2024-02-16T13:38:30;3.63;;;2.17;;
6479;SDS011;71753;48.772;9.148;2024-02-16T13:40:57;4.07;;;1.93;;
6479;SDS011;71753;48.772;9.148;2024-02-16T13:43:24;2.63;;;1.90;;
6479;SDS011;71753;48.772;9.148;2024-02-16T13:45:51;3.13;;;2.30;;
6479;SDS011;71753;48.772;9.148;2024-02-16T13:48:20;3.97;;;2.20;;
6479;SDS011;71753;48.772;9.148;2024-02-16T13:50:47;4.70;;;2.03;;
6479;SDS011;71753;48.772;9.148;2024-02-16T13:53:14;3.70;;;2.30;;
6479;SDS011;71753;48.772;9.148;2024-02-16T13:55:41;3.60;;;2.13;;
6479;SDS011;71753;48.772;9.148;2024-02-16T13:58:09;3.20;;;2.20;;
6479;SDS011;71753;48.772;9.148;2024-02-16T14:00:36;2.97;;;2.20;;
6479;SDS011;71753;48.772;9.148;2024-02-16T14:03:03;3.60;;;2.10;;
6479;SDS011;71753;48.772;9.148;2024-02-16T14:05:32;4.00;;;1.97;;
6479;SDS011;71753;48.772;9.148;2024-02-16T14:07:59;4.47;;;2.20;;
6479;SDS011;71753;48.772;9.148;2024-02-16T14:10:26;7.93;;;2.30;;
6479;SDS011;71753;48.772;9.148;2024-02-16T14:12:52;5.33;;;2.70;;
6479;SDS011;71753;48.772;9.148;2024-02-16T14:15:19;3.20;;;2.43;;
6479;SDS011;71753;48.772;9.148;2024-02-16T14:17:46;3.90;;;2.10;;
6479;SDS011;71753;48.772;9.148;2024-02-16T14:20:12;4.73;;;2.50;;
6479;SDS011;71753;48.772;9.148;2024-02-16T14:22:40;3.40;;;2.10;;
6479;SDS011;71753;48.772;9.148;2024-02-16T14:25:07;5.87;;;2.20;;
6479;SDS011;71753;48.772;9.148;2024-02-16T14:27:36;4.87;;;2.20;;
6479;SDS011;71753;48.772;9.148;2024-02-16T14:30:03;5.03;;;2.40;;
6479;SDS011;71753;48.772;9.148;2024-02-16T14:32:31;3.93;;;2.20;;
6479;SDS011;71753;48.772;9.148;2024-02-16T14:34:57;3.67;;;2.60;;
6479;SDS011;71753;48.772;9.148;2024-02-16T14:37:24;4.37;;;2.70;;
6479;SDS011;71753;48.772;9.148;2024-02-16T14:39:54;4.10;;;2.27;;
6479;SDS011;71753;48.772;9.148;2024-02-16T14:42:22;4.03;;;2.53;;
6479;SDS011;71753;48.772;9.148;2024-02-16T14:44:49;2.80;;;1.83;;
6479;SDS011;71753;48.772;9.148;2024-02-16T14:47:16;4.50;;;1.73;;
6479;SDS011;71753;48.772;9.148;2024-02-16T14:49:43;3.40;;;1.90;;
6479;SDS011;71753;48.772;9.148;2024-02-16T14:52:09;3.47;;;1.80;;
6479;SDS011;71753;48.772;9.148;2024-02-16T14:54:37;1.93;;;1.67;;
6479;SDS011;71753;48.772;9.148;2024-02-16T14:57:06;3.23;;;1.77;;
6479;SDS011;71753;48.772;9.148;2024-02-16T14:59:33;1.67;;;1.50;;
6479;SDS011;71753;48.772;9.148;2024-02-16T15:01:59;2.47;;;1.37;;